Photometre #44[NE_1.6] Rome_La_Sapienza AOT

File : 20220926_44.hum

26/09/2022,05:49:26,TEMP=17.4,BA=5.68,STAT.A=6.5,ExtBa=13.33
26/09/2022,05:52:54,TEMP=17.5,BA=5.60,STAT.A=6.5,ExtBa=13.33
26/09/2022,05:56:58,TEMP=17.5,BA=5.60,STAT.A=6.5,ExtBa=13.33
26/09/2022,06:01:47,TEMP=17.5,BA=5.68,STAT.A=6.5,ExtBa=13.33
26/09/2022,06:07:36,TEMP=17.6,BA=5.68,STAT.A=6.5,ExtBa=13.33
26/09/2022,06:14:46,TEMP=17.7,BA=5.68,STAT.A=6.5,ExtBa=13.33
26/09/2022,06:23:50,TEMP=17.8,BA=5.68,STAT.B=6.5,ExtBa=13.33
26/09/2022,06:28:10,TEMP=17.8,BA=5.68,STAT.A=6.5,ExtBa=13.33
26/09/2022,06:33:02,TEMP=17.9,BA=5.60,STAT.A=6.5,ExtBa=13.33
26/09/2022,06:38:31,TEMP=17.9,BA=5.60,STAT.A=6.5,ExtBa=13.33
26/09/2022,06:44:46,TEMP=18.0,BA=5.56,STAT.A=6.5,ExtBa=13.33
26/09/2022,06:51:56,TEMP=18.2,BA=5.68,STAT.C=6.5,ExtBa=13.33
26/09/2022,07:00:17,TEMP=18.3,BA=5.68,STAT.A=6.5,ExtBa=13.33
26/09/2022,07:10:08,TEMP=18.1,BA=5.64,STAT.A=6.5,ExtBa=13.33
26/09/2022,07:22:00,TEMP=17.9,BA=5.68,STAT.A=6.5,ExtBa=13.33
26/09/2022,07:36:33,TEMP=18.8,BA=5.64,STAT.A=6.5,ExtBa=13.28
26/09/2022,07:55:07,TEMP=17.7,BA=5.68,STAT.B=6.5,ExtBa=13.33
26/09/2022,08:01:56,TEMP=17.6,BA=5.56,STAT.F,ExtBa=13.31
26/09/2022,08:16:54,TEMP=17.5,BA=5.68,STAT.D=6.5,ExtBa=13.33
26/09/2022,08:31:54,TEMP=17.6,BA=5.68,STAT.D=6.5,ExtBa=13.33
26/09/2022,08:46:55,TEMP=17.7,BA=5.68,STAT.D=6.5,ExtBa=13.33
26/09/2022,09:01:56,TEMP=17.6,BA=5.68,STAT.F,ExtBa=13.31
26/09/2022,09:16:55,TEMP=17.7,BA=5.68,STAT.D=6.5,ExtBa=13.33
26/09/2022,09:31:55,TEMP=17.9,BA=5.68,STAT.D=6.5,ExtBa=13.33
26/09/2022,09:46:55,TEMP=18.1,BA=5.68,STAT.D=6.5,ExtBa=13.33
26/09/2022,10:01:56,TEMP=18.2,BA=5.68,STAT.F,ExtBa=13.31
26/09/2022,10:16:55,TEMP=18.5,BA=5.68,STAT.D=6.5,ExtBa=13.34
26/09/2022,10:31:55,TEMP=19.0,BA=5.68,STAT.D=6.5,ExtBa=13.33
26/09/2022,10:46:55,TEMP=20.0,BA=5.68,STAT.D=6.5,ExtBa=13.34
26/09/2022,11:01:37,TEMP=20.2,BA=5.68,STAT.h
26/09/2022,11:01:38,TEMP=20.2,BA=5.68,STAT.h
26/09/2022,11:16:55,TEMP=23.6,BA=5.68,STAT.D=6.5,ExtBa=13.34
26/09/2022,11:31:55,TEMP=24.1,BA=5.68,STAT.D=6.5,ExtBa=13.33
26/09/2022,11:46:55,TEMP=25.0,BA=5.68,STAT.D=6.5,ExtBa=13.33
26/09/2022,12:01:56,TEMP=24.8,BA=5.68,STAT.F,ExtBa=13.32
26/09/2022,12:16:55,TEMP=24.1,BA=5.68,STAT.D=6.5,ExtBa=13.33
26/09/2022,12:31:55,TEMP=24.1,BA=5.68,STAT.D=6.5,ExtBa=13.33
26/09/2022,12:46:55,TEMP=23.9,BA=5.68,STAT.D=6.5,ExtBa=13.33
26/09/2022,13:01:56,TEMP=23.3,BA=5.68,STAT.F,ExtBa=13.31
26/09/2022,13:16:54,TEMP=23.0,BA=5.68,STAT.D=6.5,ExtBa=13.32
26/09/2022,13:31:55,TEMP=21.8,BA=5.64,STAT.D=6.5,ExtBa=13.33
26/09/2022,13:46:54,TEMP=20.3,BA=5.68,STAT.D=6.5,ExtBa=13.32
26/09/2022,14:01:56,TEMP=19.6,BA=5.68,STAT.F,ExtBa=13.31
26/09/2022,14:08:45,TEMP=19.5,BA=5.68,STAT.B=6.5,ExtBa=13.33
26/09/2022,14:27:18,TEMP=20.5,BA=5.68,STAT.A=6.5,ExtBa=13.33
26/09/2022,14:41:52,TEMP=21.3,BA=5.68,STAT.A=6.5,ExtBa=13.33
26/09/2022,14:53:43,TEMP=21.5,BA=5.68,STAT.A=6.5,ExtBa=13.33
26/09/2022,15:03:33,TEMP=22.8,BA=5.68,STAT.A=6.5,ExtBa=13.33
26/09/2022,15:11:54,TEMP=22.7,BA=5.68,STAT.C=6.5,ExtBa=13.33
26/09/2022,15:19:04,TEMP=22.2,BA=5.68,STAT.A=6.5,ExtBa=13.33
26/09/2022,15:25:19,TEMP=21.9,BA=5.52,STAT.A=6.5,ExtBa=13.32
26/09/2022,15:30:48,TEMP=21.9,BA=5.68,STAT.A=6.5,ExtBa=13.32
26/09/2022,15:35:40,TEMP=21.9,BA=5.68,STAT.A=6.5,ExtBa=13.32
26/09/2022,15:40:00,TEMP=22.1,BA=5.68,STAT.B=6.5,ExtBa=13.32
26/09/2022,15:50:57,TEMP=23.2,BA=5.52,STAT.A=6.5,ExtBa=12.97
26/09/2022,15:56:14,TEMP=23.3,BA=5.52,STAT.A=6.5,ExtBa=13.17
26/09/2022,16:02:03,TEMP=23.5,BA=5.64,STAT.A=6.5,ExtBa=13.28
26/09/2022,16:06:52,TEMP=23.5,BA=5.64,STAT.A=6.5,ExtBa=13.26
26/09/2022,16:10:56,TEMP=23.3,BA=5.64,STAT.A=6.5,ExtBa=13.23
26/09/2022,16:14:24,TEMP=23.1,BA=5.64,STAT.A=6.5,ExtBa=13.27